APW weather

Faleolo International Airport
Apia, A'ana District, Samoa

Public forecast

Using degrees Celsius for public forecast. Weather courtesy of forecast.io.

Current aviation weather report (METAR) for Faleolo International Airport

Report is more than 6 hours old.

Retrieved 2020/02/20 17:00 UTC (10 hours ago):

NSFA 201700Z 22009KT 9999 DZ FEW020 BKN034 OVC100 26/25 Q1005 RMK SPECI CONDX CEASE

Aviation forecast (TAF) for Faleolo International Airport

Retrieved 2020-02-21 00:30 UTC (2 hours ago):

TAF NSFA 202326Z 2100/2124 23013KT 9999 -RA SCT020 SCT030 BKN100 TEMPO 2100/2114 33030G45KT 1500 +TSRA BKN010 SCT015CB